Ocean Park, Maine
Current Conditions -  °F | °C
As of 7:51 AM on Sunday 21 Dec 2014 (Local Time) from KPWM Reporting Station
Overcast Overcast  
Wind Chill: 14°   Ceiling: 4100
Heat Index: 23°   Visibility: 10mi
Dew Point: 19°   Wind: 8mph
Humidity: 85%   Direction: 340°NNW
Pressure: 30.36"   Gusts: NA
Location:  43.5°N, 70.39°W
Report Text: KPWM 211251Z 34007KT 10SM OVC041 M05/M07 A3036 RMK AO2 SLP282 T10501072
Loading
Personal Weather Stations






























Interactive Weather Map New forecast layout! Learn more

10-Day Weather Forecast

Advertisements
Track Severe Weather on mobile